Chaybukha Airport

UHMG · Magadan Oblast, Russia

METAR history UHMG · Chaybukha Airport

Below you see METARs of the last few days. Select a year to browse through older METARs, from the year 2007 onwards.

June 14, 2024

Time Code Weather Temp. Visibility Ceiling Wind METAR/SPECI
17:00
V
20 °C 10 km+ - 220° 220° 3 kt METAR UHMM 140600Z 22002MPS 120V280 9999 FEW040CB 20/05 Q1007 R10/70D NOSIG RMK QFE740 R28/29003MPS 260V020
16:30
V
20 °C 10 km+ - 260° 260° 5 kt METAR UHMM 140530Z 26003MPS 210V350 9999 FEW040CB 20/04 Q1007 R10/CLRD70 NOSIG RMK QFE740 R28/30005MPS
16:00
V
20 °C 10 km+ - 220° 220° 5 kt METAR UHMM 140500Z 22003MPS 9999 SCT040CB 20/04 Q1007 R10/70D NOSIG RMK QFE741 R28/24005MPS
15:30
V
18 °C 10 km+ 4,000 ft 140° 140° 5 kt METAR UHMM 140430Z 14003MPS 9999 BKN040CB 18/06 Q1008 R10/CLRD70 NOSIG RMK QFE741 R28/21003MPS
15:08
V
16 °C 10 km+ 4,000 ft 140° 140° 9 kt METAR UHMM 140408Z 14005MPS 9999 -SHRA OVC040CB 16/08 Q1008 R10/CLRD70 NOSIG RMK QFE741 R28/22004MPS
15:00
V
15 °C 10 km+ 7,000 ft 150° 150° 9 kt METAR UHMM 140400Z 15005MPS 9999 -SHRA SCT040CB OVC070 15/08 Q1008 R10/CLRD70 NOSIG RMK QFE741 R28/20005MPS
14:30
V
18 °C 10 km+ 7,000 ft 170° 170° 7 kt METAR UHMM 140330Z 17004MPS 9999 TS SCT040CB OVC070 18/06 Q1008 R10/CLRD70 NOSIG RMK QFE741 R28/20004MPS
14:00
V
18 °C 10 km+ 7,000 ft 110° 110° 5 kt METAR UHMM 140300Z 11003MPS 070V150 9999 TS SCT040CB OVC070 18/04 Q1007 R10/CLRD70 NOSIG RMK QFE741 R28/06003MPS 360V080
13:38
V
19 °C 10 km+ - 220° 220° 7 kt METAR UHMM 140238Z 22004MPS 9999 TS SCT040CB 19/06 Q1007 R10/CLRD70 NOSIG RMK QFE741 R28/28004MPS
13:30
V
19 °C 10 km+ - 220° 220° 9 kt METAR UHMM 140230Z 22005MPS 9999 SCT040CB 19/05 Q1007 R10/CLRD70 TEMPO -TSRA RMK QFE740 R28/26005MPS
13:00
V
21 °C 10 km+ - 210° 210° 7 kt METAR UHMM 140200Z 21004MPS 9999 SCT040CB 21/05 Q1007 R10/70D TEMPO -TSRA RMK QFE740 R28/25004MPS
12:30
V
21 °C 10 km+ - 220° 220° 5 kt METAR UHMM 140130Z 22003MPS 150V300 9999 SCT040CB 21/04 Q1007 R10/CLRD70 TEMPO -TSRA RMK QFE740 R28/32003MPS 290V010
12:00
V
21 °C 10 km+ - 240° 240° 5 kt METAR UHMM 140100Z 24003MPS 210V290 9999 FEW040CB 21/04 Q1007 R10/CLRD70 NOSIG RMK QFE741 R28/32002MPS 240V360
11:30
V
20 °C 10 km+ - 210° 210° 3 kt METAR UHMM 140030Z 21002MPS 150V270 9999 FEW040 20/03 Q1007 R10/CLRD70 NOSIG RMK QFE741 R28/14001MPS
11:00
V
19 °C 10 km+ - 130° 130° 3 kt METAR UHMM 140000Z 13002MPS 100V170 9999 NSC 19/04 Q1008 R10/70D NOSIG RMK QFE741 R28/24001MPS
10:30
V
18 °C 10 km+ - 200° 200° 3 kt METAR UHMM 132330Z 20002MPS 110V280 9999 NSC 18/04 Q1008 R10/CLRD70 NOSIG RMK QFE741 R28/25001MPS
10:00
V
17 °C 10 km+ - 360° 360° 0 kt METAR UHMM 132300Z 00000MPS 9999 NSC 17/04 Q1008 R10/CLRD70 NOSIG RMK QFE741 R28/31002MPS 270V360
09:30
V
16 °C 10 km+ - 360° 360° 0 kt METAR UHMM 132230Z 00000MPS 9999 NSC 16/03 Q1009 R10/CLRD70 NOSIG RMK QFE742 R28/27001MPS
09:00
V
14 °C 10 km+ - 360° 360° 0 kt METAR UHMM 132200Z 00000MPS 9999 NSC 14/03 Q1009 R10/CLRD70 NOSIG RMK QFE742 R28/28001MPS
08:30
V
12 °C 10 km+ - 360° 360° 0 kt METAR UHMM 132130Z 00000MPS 9999 NSC 12/04 Q1009 R10/CLRD70 NOSIG RMK QFE742 R28/29001MPS
08:00
V
10 °C 10 km+ - 360° 360° 0 kt METAR UHMM 132100Z 00000MPS 9999 NSC 10/04 Q1009 R10/70D NOSIG RMK QFE742 R28/00000MPS
07:00
V
8 °C 10 km+ - 360° 360° 0 kt METAR UHMM 132000Z 00000MPS 9999 NSC 08/04 Q1009 R10/70D RMK QFE742 R28/00000MPS
06:00
V
4 °C 10 km+ - 360° 360° 0 kt METAR UHMM 131900Z 00000MPS 9999 NSC 04/04 Q1009 RMK QFE742 R28/09002MPS
05:00
V
1 °C 10 km+ - 060° 060° 1 kt METAR UHMM 131800Z 06001MPS 9999 NSC 01/01 Q1010 RMK QFE742 R28/10003MPS
04:00
V
2 °C 10 km+ - 110° 110° 3 kt METAR UHMM 131700Z 11002MPS 9999 NSC 02/02 Q1010 RMK QFE742 R28/09002MPS
03:00
V
2 °C 10 km+ - 060° 060° 3 kt METAR UHMM 131600Z 06002MPS 9999 FEW040 02/02 Q1009 RMK QFE742 R28/07003MPS
02:00
V
3 °C 10 km+ - 360° 360° 0 kt METAR UHMM 131500Z 00000MPS 9999 SCT040 03/03 Q1010 RMK QFE742 R28/09003MPS
01:00
V
6 °C 10 km+ - 340° 340° 1 kt METAR UHMM 131400Z 34001MPS 9999 SCT040 06/04 Q1010 RMK QFE742 R28/08002MPS
00:00
V
8 °C 10 km+ - 360° 360° 1 kt METAR UHMM 131300Z 36001MPS 9999 SCT040 08/04 Q1010 RMK QFE742 R28/00000MPS

June 13, 2024

Time Code Weather Temp. Visibility Ceiling Wind METAR/SPECI
23:00
V
9 °C 10 km+ - 350° 350° 1 kt METAR UHMM 131200Z 35001MPS 9999 FEW040 09/04 Q1009 RMK QFE742 R28/25001MPS
22:00
V
12 °C 10 km+ - 340° 340° 1 kt METAR UHMM 131100Z 34001MPS 9999 FEW040 12/04 Q1010 RMK QFE742 R28/33001MPS
21:00
V
13 °C 10 km+ - 270° 270° 3 kt METAR UHMM 131000Z 27002MPS 9999 FEW040 13/03 Q1009 RMK QFE742 R28/29003MPS
20:30
V
14 °C 10 km+ - 240° 240° 1 kt METAR UHMM 130930Z 24001MPS 9999 FEW040 14/02 Q1009 R10/CLRD70 NOSIG RMK QFE742 R28/27003MPS
20:00
V
14 °C 10 km+ - 220° 220° 1 kt METAR UHMM 130900Z 22001MPS 9999 SCT040CB 14/03 Q1009 R10/70D NOSIG RMK QFE742 R28/30002MPS
19:30
V
14 °C 10 km+ - 360° 360° 0 kt METAR UHMM 130830Z 00000MPS 9999 SCT040CB 14/04 Q1009 R10/CLRD70 NOSIG RMK QFE742 R28/29003MPS
19:00
V
15 °C 10 km+ - 220° 220° 5 kt METAR UHMM 130800Z 22003MPS 190V280 9999 SCT040CB 15/04 Q1009 R10/70D NOSIG RMK QFE742 R28/28003MPS
18:30
V
15 °C 10 km+ - 250° 250° 7 kt METAR UHMM 130730Z 25004MPS 9999 SCT040 15/04 Q1009 R28/CLRD70 NOSIG RMK QFE741 R10/21004MPS
18:00
V
15 °C 10 km+ - 290° 290° 5 kt METAR UHMM 130700Z 29003MPS 9999 SCT040 15/04 Q1009 R28/CLRD70 NOSIG RMK QFE741 R10/22004MPS
17:30
V
15 °C 10 km+ 4,000 ft 260° 260° 7 kt METAR UHMM 130630Z 26004MPS 9999 BKN040CB 15/03 Q1009 R28/CLRD70 NOSIG RMK QFE741 R10/21005MPS
17:00
V
17 °C 10 km+ 4,000 ft 250° 250° 11 kt METAR UHMM 130600Z 25006MPS 9999 BKN040CB 17/03 Q1009 R28/CLRD70 NOSIG RMK QFE741 R10/20006MPS
16:30
V
18 °C 10 km+ 4,000 ft 270° 270° 11 kt METAR UHMM 130530Z 27006MPS 9999 BKN040CB 18/03 Q1009 R28/CLRD70 NOSIG RMK QFE741 R10/23005MPS
16:00
V
18 °C 10 km+ 4,000 ft 280° 280° 11 kt METAR UHMM 130500Z 28006MPS 9999 BKN040CB 18/04 Q1009 R28/CLRD70 NOSIG RMK QFE741 R10/22005MPS
15:30
V
20 °C 10 km+ 4,000 ft 280° 280° 13 kt METAR UHMM 130430Z 28007MPS 9999 BKN040CB 20/03 Q1008 R28/CLRD70 NOSIG RMK QFE740 R10/24006MPS
15:00
V
20 °C 10 km+ - 260° 260° 15 kt METAR UHMM 130400Z 26008MPS 9999 SCT040CB 20/04 Q1008 R28/CLRD70 NOSIG RMK QFE741 R10/22007MPS
14:30
V
19 °C 10 km+ - 220° 220° 13 kt METAR UHMM 130330Z 22007MPS 9999 SCT040CB 19/04 Q1008 R10/CLRD70 NOSIG RMK QFE741 R28/26006MPS
14:00
V
21 °C 10 km+ - 220° 220° 13 kt METAR UHMM 130300Z 22007MPS 9999 SCT040 21/04 Q1008 R10/CLRD70 NOSIG RMK QFE741 R28/21005MPS 150V290
13:30
V
22 °C 10 km+ - 160° 160° 7 kt METAR UHMM 130230Z 16004MPS 120V190 9999 SCT040 22/02 Q1008 R10/CLRD70 NOSIG RMK QFE741 R28/17004MPS 110V220
13:00
V
21 °C 10 km+ - 140° 140° 7 kt METAR UHMM 130200Z 14004MPS 100V190 9999 SCT040 21/02 Q1008 R10/CLRD70 NOSIG RMK QFE741 R28/16003MPS 090V240
12:30
V
21 °C 10 km+ - 100° 100° 7 kt METAR UHMM 130130Z 10004MPS 040V170 9999 SCT040 21/02 Q1008 R10/CLRD70 NOSIG RMK QFE741 R28/14003MPS 100V170
12:18
V
21 °C 10 km+ - 090° 090° 9 kt METAR UHMM 130118Z 09005MPS 050V140 9999 SCT040 21/02 Q1009 R10/CLRD70 NOSIG RMK QFE742 R28/15004MPS 110V200
12:00
V
20 °C 10 km+ - 160° 160° 3 kt METAR UHMM 130100Z 16002MPS 9999 SCT040 20/02 Q1009 R10/CLRD70 NOSIG RMK QFE742 R28/17004MPS 110V210
11:30
V
19 °C 10 km+ - 080° 080° 3 kt METAR UHMM 130030Z 08002MPS 010V180 9999 FEW040 19/02 Q1009 R10/CLRD70 NOSIG RMK QFE742 R28/25002MPS 130V300
11:00
V
19 °C 10 km+ - 180° 180° 3 kt METAR UHMM 130000Z 18002MPS 9999 FEW040 19/01 Q1009 R10/70D NOSIG RMK QFE742 R28/32002MPS 260V360
10:30
V
18 °C 10 km+ - 250° 250° 1 kt METAR UHMM 122330Z 25001MPS 9999 NSC 18/03 Q1010 R10/CLRD70 NOSIG RMK QFE742 R28/34001MPS
10:00
V
16 °C 10 km+ - 360° 360° 0 kt METAR UHMM 122300Z 00000MPS 9999 NSC 16/02 Q1010 R10/70D NOSIG RMK QFE743 R28/34001MPS
09:30
V
14 °C 10 km+ - 190° 190° 1 kt METAR UHMM 122230Z 19001MPS 9999 NSC 14/04 Q1010 R10/CLRD70 NOSIG RMK QFE743 R28/21001MPS
09:00
V
12 °C 10 km+ - 140° 140° 1 kt METAR UHMM 122200Z 14001MPS 9999 NSC 12/04 Q1010 R10/70D NOSIG RMK QFE743 R28/00000MPS
08:30
V
10 °C 10 km+ - 170° 170° 1 kt METAR UHMM 122130Z 17001MPS 9999 NSC 10/04 Q1011 R10/CLRD70 NOSIG RMK QFE743 R28/00000MPS
08:00
V
9 °C 10 km+ - 360° 360° 0 kt METAR UHMM 122100Z 00000MPS 9999 NSC 09/03 Q1011 R10/70D NOSIG RMK QFE743 R28/00000MPS
07:00
V
6 °C 10 km+ - 360° 360° 0 kt METAR UHMM 122000Z 00000MPS 9999 NSC 06/03 Q1011 R10/CLRD70 RMK QFE743 R28/00000MPS
06:00
V
4 °C 10 km+ - 360° 360° 0 kt METAR UHMM 121900Z 00000MPS 9999 NSC 04/03 Q1011 RMK QFE743 R28/10002MPS
05:00
V
-1 °C 10 km+ - 360° 360° 0 kt METAR UHMM 121800Z 00000MPS 9999 NSC M01/M01 Q1011 RMK QFE744 R28/09002MPS
04:00
V
-2 °C 10 km+ - 130° 130° 1 kt METAR UHMM 121700Z 13001MPS 9999 NSC M02/M02 Q1011 RMK QFE744 R28/07003MPS
03:00
V
-1 °C 10 km+ - 060° 060° 1 kt METAR UHMM 121600Z 06001MPS 9999 NSC M01/M01 Q1011 RMK QFE744 R28/09002MPS
02:00
V
0 °C 10 km+ - 090° 090° 1 kt METAR UHMM 121500Z 09001MPS 9999 NSC M00/M00 Q1011 RMK QFE744 R28/09002MPS
01:00
V
1 °C 10 km+ - 310° 310° 1 kt METAR UHMM 121400Z 31001MPS 9999 NSC 01/01 Q1012 RMK QFE744 R28/10002MPS
00:00
V
3 °C 10 km+ - 310° 310° 3 kt METAR UHMM 121300Z 31002MPS 9999 NSC 03/03 Q1012 RMK QFE744 R28/32002MPS

June 12, 2024

Time Code Weather Temp. Visibility Ceiling Wind METAR/SPECI
23:00
V
4 °C 10 km+ - 310° 310° 3 kt METAR UHMM 121200Z 31002MPS 9999 NSC 04/03 Q1012 RMK QFE744 R28/32003MPS
22:00
V
7 °C 10 km+ - 290° 290° 3 kt METAR UHMM 121100Z 29002MPS 250V330 9999 SCT050 07/03 Q1012 RMK QFE744 R28/31003MPS
21:00
V
9 °C 10 km+ - 240° 240° 3 kt METAR UHMM 121000Z 24002MPS 190V290 9999 NSC 09/03 Q1012 RMK QFE744 R28/30003MPS
20:00
V
10 °C 10 km+ - 220° 220° 5 kt METAR UHMM 120900Z 22003MPS 160V240 9999 NSC 10/04 Q1012 R10/70D NOSIG RMK QFE744 R28/28005MPS
19:30
V
10 °C 10 km+ - 210° 210° 7 kt METAR UHMM 120830Z 21004MPS 9999 NSC 10/03 Q1012 R10/CLRD70 NOSIG RMK QFE744 R28/28006MPS
19:00
V
11 °C 10 km+ - 270° 270° 9 kt METAR UHMM 120800Z 27005MPS 9999 NSC 11/04 Q1011 R28/CLRD70 NOSIG RMK QFE743 R10/21006MPS
18:30
V
13 °C 10 km+ - 270° 270° 9 kt METAR UHMM 120730Z 27005MPS 9999 NSC 13/04 Q1011 R28/CLRD70 NOSIG RMK QFE743 R10/22005MPS
18:00
V
13 °C 10 km+ - 260° 260° 11 kt METAR UHMM 120700Z 26006MPS 9999 NSC 13/04 Q1011 R28/CLRD70 NOSIG RMK QFE743 R10/23006MPS
17:30
V
13 °C 10 km+ - 270° 270° 11 kt METAR UHMM 120630Z 27006MPS 9999 NSC 13/04 Q1011 R28/CLRD70 NOSIG RMK QFE743 R10/22006MPS
17:00
V
13 °C 10 km+ - 270° 270° 11 kt METAR UHMM 120600Z 27006MPS 9999 FEW040 13/04 Q1011 R28/70D NOSIG RMK QFE743 R10/22006MPS
Report a change